Time;durP1;ratioP1;P1;durP2;ratioP2;P2;SDS_P1;SDS_P2;PMS_P1;PMS_P2;Temp;Humidity;BMP_temperature;BMP_pressure;BME280_temperature;BME280_humidity;BME280_pressure;Samples;Min_cycle;Max_cycle;Signal;HPM_P1;HPM_P2
2022/12/09 00:01:19;;;;;;;13.70;10.50;;;3.60;99.90;;;;;;5088879;28;20239;-61
2022/12/09 00:03:45;;;;;;;19.97;12.40;;;3.50;99.90;;;;;;5077502;28;20235;-63
2022/12/09 00:06:18;;;;;;;16.37;11.23;;;3.50;99.90;;;;;;5097488;28;20258;-61
2022/12/09 00:08:44;;;;;;;19.03;10.90;;;3.40;99.90;;;;;;5090645;28;20218;-62
2022/12/09 00:11:10;;;;;;;14.83;9.80;;;3.30;99.90;;;;;;5091151;28;20292;-61
2022/12/09 00:13:36;;;;;;;15.40;10.13;;;3.30;99.90;;;;;;5082136;28;20707;-61
2022/12/09 00:16:09;;;;;;;17.30;10.63;;;3.20;99.90;;;;;;5091890;28;20193;-62
2022/12/09 00:18:35;;;;;;;18.27;11.70;;;3.10;99.90;;;;;;5082304;28;20686;-61
2022/12/09 00:21:17;;;;;;;12.60;10.23;;;3.10;99.90;;;;;;5090970;28;20271;-62
2022/12/09 00:23:43;;;;;;;21.17;12.10;;;3.10;99.90;;;;;;5088641;28;20181;-62
2022/12/09 00:26:10;;;;;;;19.17;11.57;;;3.10;99.90;;;;;;5086156;28;20555;-61
2022/12/09 00:28:36;;;;;;;17.70;12.17;;;3.10;99.90;;;;;;5088487;28;20323;-61
2022/12/09 00:31:02;;;;;;;16.90;12.27;;;3.00;99.90;;;;;;5094599;28;20750;-61
2022/12/09 00:33:32;;;;;;;18.67;12.63;;;3.10;99.90;;;;;;5090912;28;20268;-61
2022/12/09 00:36:10;;;;;;;20.00;11.03;;;3.10;99.90;;;;;;5091349;28;20188;-61
2022/12/09 00:38:36;;;;;;;15.70;11.40;;;3.00;99.90;;;;;;5083959;28;20180;-61
2022/12/09 00:41:02;;;;;;;20.90;13.30;;;2.90;99.90;;;;;;5091184;28;20287;-61
2022/12/09 00:43:28;;;;;;;16.10;11.37;;;2.90;99.90;;;;;;5089723;28;20192;-61
2022/12/09 00:45:54;;;;;;;17.83;12.50;;;2.90;99.90;;;;;;5091467;28;20658;-61
2022/12/09 00:48:20;;;;;;;22.53;12.47;;;3.00;99.90;;;;;;5078529;28;20180;-62
2022/12/09 00:50:45;;;;;;;20.10;13.27;;;3.10;99.90;;;;;;5089305;28;20703;-61
2022/12/09 00:53:11;;;;;;;16.07;11.50;;;2.90;99.90;;;;;;5085874;28;20192;-61
2022/12/09 00:55:37;;;;;;;19.73;11.93;;;2.70;99.90;;;;;;5090026;28;20635;-61
2022/12/09 00:58:02;;;;;;;13.70;12.23;;;2.60;99.90;;;;;;5077226;28;20200;-62
2022/12/09 01:00:28;;;;;;;18.67;14.57;;;2.60;99.90;;;;;;5070183;28;20188;-62
2022/12/09 01:02:54;;;;;;;18.30;12.57;;;2.60;99.90;;;;;;5084112;28;20276;-61
2022/12/09 01:05:20;;;;;;;16.20;12.00;;;2.50;99.90;;;;;;5075979;28;20647;-61
2022/12/09 01:07:45;;;;;;;15.70;11.03;;;2.40;99.90;;;;;;5086431;28;20184;-61
2022/12/09 01:10:11;;;;;;;16.43;12.27;;;2.30;99.90;;;;;;5080924;28;20195;-62
2022/12/09 01:12:37;;;;;;;18.00;11.90;;;2.30;99.90;;;;;;5089847;28;20194;-62
2022/12/09 01:15:04;;;;;;;15.47;10.93;;;2.30;99.90;;;;;;5089432;28;20622;-62
2022/12/09 01:17:30;;;;;;;22.00;12.13;;;2.20;99.90;;;;;;5062424;28;20194;-62
2022/12/09 01:19:55;;;;;;;17.37;11.97;;;2.20;99.90;;;;;;5089783;28;20249;-61
2022/12/09 01:22:21;;;;;;;17.57;13.10;;;2.20;99.90;;;;;;5090406;28;20200;-61
2022/12/09 01:24:47;;;;;;;16.30;11.17;;;2.20;99.90;;;;;;5086549;28;20177;-61
2022/12/09 01:27:12;;;;;;;17.50;11.53;;;2.20;99.90;;;;;;5090759;28;20188;-62
2022/12/09 01:29:38;;;;;;;13.03;10.73;;;2.20;99.90;;;;;;5091277;28;20318;-61
2022/12/09 01:32:04;;;;;;;17.83;12.93;;;2.20;99.90;;;;;;5078646;28;20212;-62
2022/12/09 01:34:29;;;;;;;18.13;11.23;;;2.10;99.90;;;;;;5090633;28;20192;-62
2022/12/09 01:36:55;;;;;;;20.03;11.57;;;2.10;99.90;;;;;;5083889;28;20186;-62
2022/12/09 01:39:21;;;;;;;19.33;12.77;;;2.10;99.90;;;;;;5090813;28;20196;-62
2022/12/09 01:41:50;;;;;;;16.93;11.53;;;2.10;99.90;;;;;;5091592;28;20188;-62
2022/12/09 01:44:22;;;;;;;13.67;10.53;;;2.00;99.90;;;;;;5090507;28;20208;-62
2022/12/09 01:46:48;;;;;;;17.00;10.77;;;2.00;99.90;;;;;;5089248;28;20511;-63
2022/12/09 01:49:21;;;;;;;15.03;9.53;;;2.00;99.90;;;;;;5094182;28;20188;-62
2022/12/09 01:51:53;;;;;;;16.13;11.97;;;2.00;99.90;;;;;;5094104;28;20218;-62
2022/12/09 01:54:19;;;;;;;16.47;11.57;;;1.90;99.90;;;;;;5092806;28;20177;-62
2022/12/09 01:56:44;;;;;;;16.87;11.57;;;2.00;99.90;;;;;;5097998;28;20230;-62
2022/12/09 01:59:13;;;;;;;18.10;12.33;;;1.90;99.90;;;;;;5094342;28;20223;-62
2022/12/09 02:01:40;;;;;;;13.33;10.10;;;2.00;99.90;;;;;;5092761;28;20203;-61
2022/12/09 02:04:06;;;;;;;16.63;11.10;;;1.90;99.90;;;;;;5087613;28;20191;-62
2022/12/09 02:06:34;;;;;;;22.33;11.70;;;1.90;99.90;;;;;;5088467;28;20272;-62
2022/12/09 02:09:00;;;;;;;20.83;12.77;;;1.80;99.90;;;;;;5095046;28;20190;-61
2022/12/09 02:11:44;;;;;;;18.67;11.30;;;1.80;99.90;;;;;;5092088;28;20227;-61
2022/12/09 02:14:41;;;;;;;14.80;11.93;;;2.00;99.90;;;;;;5085195;28;20181;-61
2022/12/09 02:17:28;;;;;;;20.23;11.13;;;2.30;99.90;;;;;;5100548;28;20189;-61
2022/12/09 02:20:03;;;;;;;17.30;10.80;;;2.10;99.90;;;;;;5094323;28;20188;-62
2022/12/09 02:22:37;;;;;;;13.80;10.90;;;1.90;99.90;;;;;;5091652;28;20231;-62
2022/12/09 02:25:20;;;;;;;15.93;10.73;;;1.90;99.90;;;;;;5080600;28;20211;-62
2022/12/09 02:28:13;;;;;;;12.10;10.77;;;1.90;99.90;;;;;;5093905;28;20181;-61
2022/12/09 02:31:17;;;;;;;20.53;11.57;;;2.00;99.90;;;;;;5093874;28;20243;-62
2022/12/09 02:34:16;;;;;;;15.50;11.77;;;1.80;99.90;;;;;;5067825;28;20219;-61
2022/12/09 02:37:30;;;;;;;18.13;11.90;;;1.70;99.90;;;;;;5091688;28;20238;-61
2022/12/09 02:40:05;;;;;;;15.43;11.27;;;1.60;99.90;;;;;;5065889;28;20206;-62
2022/12/09 02:42:34;;;;;;;12.97;11.17;;;1.50;99.90;;;;;;5085206;28;20184;-61
2022/12/09 02:45:04;;;;;;;14.40;10.30;;;1.50;99.90;;;;;;5093233;28;20662;-62
2022/12/09 02:47:33;;;;;;;16.80;11.17;;;1.50;99.90;;;;;;5092521;28;20555;-61
2022/12/09 02:50:03;;;;;;;12.87;10.00;;;1.60;99.90;;;;;;5092792;28;20631;-62
2022/12/09 02:52:30;;;;;;;16.73;13.17;;;1.50;99.90;;;;;;5090514;28;20281;-62
2022/12/09 02:54:59;;;;;;;12.73;11.20;;;1.50;99.90;;;;;;5082312;28;20720;-62
2022/12/09 02:57:27;;;;;;;16.93;11.83;;;1.50;99.90;;;;;;5078910;28;20196;-62
2022/12/09 02:59:53;;;;;;;12.90;10.37;;;1.50;99.90;;;;;;5087884;28;20201;-61
2022/12/09 03:02:29;;;;;;;19.07;12.10;;;1.60;99.90;;;;;;5090876;28;20196;-62
2022/12/09 03:05:12;;;;;;;16.30;10.10;;;1.50;99.90;;;;;;5081321;28;20310;-62
2022/12/09 03:08:00;;;;;;;14.30;11.03;;;1.50;99.90;;;;;;5090880;28;20181;-61
2022/12/09 03:10:35;;;;;;;15.40;12.07;;;1.40;99.90;;;;;;5087691;28;20212;-62
2022/12/09 03:13:26;;;;;;;20.43;12.43;;;1.40;99.90;;;;;;5091863;28;20187;-61
2022/12/09 03:16:01;;;;;;;17.87;12.53;;;1.30;99.90;;;;;;5084364;28;20232;-62
2022/12/09 03:18:30;;;;;;;17.80;11.83;;;1.30;99.90;;;;;;5093139;28;20225;-62
2022/12/09 03:20:56;;;;;;;13.77;11.77;;;1.30;99.90;;;;;;5091585;28;20212;-63
2022/12/09 03:23:25;;;;;;;15.37;11.53;;;1.40;99.90;;;;;;5091234;28;20189;-62
2022/12/09 03:25:53;;;;;;;17.87;10.60;;;1.40;99.90;;;;;;5085560;28;20286;-62
2022/12/09 03:28:21;;;;;;;13.47;11.83;;;1.40;99.90;;;;;;5084848;28;20185;-62
2022/12/09 03:30:48;;;;;;;17.50;10.60;;;1.40;99.90;;;;;;5093273;28;20286;-62
2022/12/09 03:33:16;;;;;;;15.97;11.03;;;1.30;99.90;;;;;;5091069;28;20496;-62
2022/12/09 03:35:47;;;;;;;21.07;13.50;;;1.30;99.90;;;;;;5092129;28;20184;-62
2022/12/09 03:38:17;;;;;;;16.10;11.40;;;1.30;99.90;;;;;;5087836;28;20172;-62
2022/12/09 03:40:45;;;;;;;19.93;11.57;;;1.30;99.90;;;;;;5092272;28;20266;-63
2022/12/09 03:43:14;;;;;;;19.40;11.97;;;1.30;99.90;;;;;;5074061;28;20192;-63
2022/12/09 03:45:41;;;;;;;22.00;11.63;;;1.20;99.90;;;;;;5090476;28;20263;-62
2022/12/09 03:48:07;;;;;;;14.63;9.67;;;1.20;99.90;;;;;;5092208;28;20189;-61
2022/12/09 03:50:42;;;;;;;18.93;10.83;;;1.20;99.90;;;;;;5079907;28;20357;-63
2022/12/09 03:53:24;;;;;;;15.60;11.03;;;1.20;99.90;;;;;;5092186;28;20660;-61
2022/12/09 03:56:00;;;;;;;19.83;11.67;;;1.10;99.90;;;;;;5091704;28;20208;-63
2022/12/09 03:58:28;;;;;;;21.60;11.67;;;1.10;99.90;;;;;;5091262;28;20193;-62
2022/12/09 04:00:54;;;;;;;24.53;13.17;;;1.20;99.90;;;;;;5090687;28;20240;-62
2022/12/09 04:03:20;;;;;;;12.43;11.07;;;1.30;99.90;;;;;;5092152;28;20281;-62
2022/12/09 04:05:46;;;;;;;16.23;9.53;;;1.70;99.90;;;;;;5089992;28;20645;-62
2022/12/09 04:08:12;;;;;;;19.20;11.13;;;1.70;99.90;;;;;;5088743;28;20192;-62
2022/12/09 04:10:38;;;;;;;15.73;12.30;;;1.50;99.90;;;;;;5083675;28;20581;-63
2022/12/09 04:13:04;;;;;;;16.53;11.80;;;1.20;99.90;;;;;;5091923;28;20222;-62
2022/12/09 04:15:29;;;;;;;19.43;13.50;;;1.10;99.90;;;;;;5091756;28;20198;-62
2022/12/09 04:17:55;;;;;;;17.53;12.37;;;1.00;99.90;;;;;;5091665;28;20184;-61
2022/12/09 04:20:20;;;;;;;18.07;12.43;;;1.00;99.90;;;;;;5091256;28;20258;-61
2022/12/09 04:22:46;;;;;;;19.63;13.93;;;1.00;99.90;;;;;;5090517;28;20246;-61
2022/12/09 04:25:12;;;;;;;23.23;15.13;;;1.00;99.90;;;;;;5081262;28;20242;-62
2022/12/09 04:27:37;;;;;;;19.90;12.00;;;1.00;99.90;;;;;;5072551;28;20189;-62
2022/12/09 04:30:04;;;;;;;24.70;9.73;;;1.00;99.90;;;;;;5091209;28;20647;-61
2022/12/09 04:32:30;;;;;;;22.43;13.97;;;1.00;99.90;;;;;;5088840;28;20718;-62
2022/12/09 04:34:56;;;;;;;23.00;13.50;;;1.00;99.90;;;;;;5088330;28;20189;-62
2022/12/09 04:37:21;;;;;;;29.87;14.77;;;0.90;99.90;;;;;;5083073;28;20555;-62
2022/12/09 04:39:47;;;;;;;18.93;12.63;;;0.90;99.90;;;;;;5087681;28;20268;-62
2022/12/09 04:42:13;;;;;;;17.43;11.83;;;0.90;99.90;;;;;;5087085;28;20193;-62
2022/12/09 04:44:39;;;;;;;25.23;14.17;;;0.90;99.90;;;;;;5089306;28;20196;-63
2022/12/09 04:47:04;;;;;;;26.40;12.83;;;1.00;99.90;;;;;;5091808;28;20557;-63
2022/12/09 04:49:30;;;;;;;21.97;13.27;;;1.00;99.90;;;;;;5090961;28;20221;-62
2022/12/09 04:51:56;;;;;;;19.20;12.37;;;1.10;99.90;;;;;;5090290;28;20220;-62
2022/12/09 04:54:22;;;;;;;19.43;11.97;;;1.20;99.90;;;;;;5087648;28;20192;-62
2022/12/09 04:56:48;;;;;;;21.03;11.27;;;1.30;99.90;;;;;;5094864;28;20192;-62
2022/12/09 04:59:14;;;;;;;20.60;14.57;;;1.30;99.90;;;;;;5091008;28;20264;-62
2022/12/09 05:01:40;;;;;;;17.13;10.07;;;1.20;99.90;;;;;;5089628;28;20326;-62
2022/12/09 05:04:06;;;;;;;22.47;12.13;;;1.20;99.90;;;;;;5088993;28;20192;-62
2022/12/09 05:06:32;;;;;;;18.50;10.80;;;1.30;99.90;;;;;;5085524;28;20200;-62
2022/12/09 05:08:57;;;;;;;18.53;12.00;;;1.50;99.90;;;;;;5077337;28;20699;-62
2022/12/09 05:11:23;;;;;;;19.93;11.17;;;1.60;99.90;;;;;;5070500;28;20586;-62
2022/12/09 05:13:50;;;;;;;20.63;11.23;;;1.50;99.90;;;;;;5082422;28;20190;-62
2022/12/09 05:16:17;;;;;;;15.77;10.37;;;1.30;99.90;;;;;;5088514;28;20173;-62
2022/12/09 05:18:43;;;;;;;15.47;11.30;;;1.40;99.90;;;;;;5088185;28;20263;-63
2022/12/09 05:21:13;;;;;;;19.20;13.07;;;1.60;99.90;;;;;;5089567;28;20208;-63
2022/12/09 05:23:39;;;;;;;18.07;11.03;;;1.60;99.90;;;;;;5086886;28;20668;-62
2022/12/09 05:26:06;;;;;;;15.20;10.10;;;1.60;99.90;;;;;;5086772;28;20342;-63
2022/12/09 05:28:33;;;;;;;19.13;9.80;;;1.50;99.90;;;;;;5090390;28;20576;-63
2022/12/09 05:31:03;;;;;;;20.37;12.40;;;1.60;99.90;;;;;;5084646;28;20244;-63
2022/12/09 05:33:29;;;;;;;14.77;12.03;;;1.40;99.90;;;;;;5089099;28;20525;-64
2022/12/09 05:35:55;;;;;;;17.37;13.87;;;1.00;99.90;;;;;;5088913;28;20196;-64
2022/12/09 05:38:22;;;;;;;18.33;10.53;;;1.00;99.90;;;;;;5084221;28;20188;-64
2022/12/09 05:40:48;;;;;;;30.43;13.33;;;1.00;99.90;;;;;;5090133;28;20570;-64
2022/12/09 05:43:13;;;;;;;22.63;12.47;;;0.90;99.90;;;;;;5089127;28;20196;-64
2022/12/09 05:45:39;;;;;;;23.03;12.43;;;1.00;99.90;;;;;;5089452;28;20666;-64
2022/12/09 05:48:05;;;;;;;21.33;11.37;;;1.20;99.90;;;;;;5089121;28;20198;-64
2022/12/09 05:50:31;;;;;;;25.70;14.57;;;1.30;99.90;;;;;;5087428;28;20273;-64
2022/12/09 05:52:56;;;;;;;19.53;11.53;;;1.30;99.90;;;;;;5089059;28;20188;-65
2022/12/09 05:55:22;;;;;;;20.27;11.50;;;1.40;99.90;;;;;;5088913;28;20180;-64
2022/12/09 05:57:48;;;;;;;20.60;12.43;;;1.40;99.90;;;;;;5089434;28;20192;-63
2022/12/09 06:00:14;;;;;;;21.93;13.50;;;1.40;99.90;;;;;;5090485;28;20189;-63
2022/12/09 06:02:39;;;;;;;22.17;12.53;;;1.40;99.90;;;;;;5090571;28;20180;-62
2022/12/09 06:05:06;;;;;;;19.40;14.47;;;1.50;99.90;;;;;;5071708;28;20188;-63
2022/12/09 06:07:33;;;;;;;22.07;13.87;;;1.60;99.90;;;;;;5090301;28;20189;-63
2022/12/09 06:09:59;;;;;;;20.90;11.80;;;1.70;99.90;;;;;;5081996;28;20195;-63
2022/12/09 06:12:24;;;;;;;22.87;15.43;;;1.70;99.90;;;;;;5089754;28;20217;-63
2022/12/09 06:14:50;;;;;;;20.57;11.97;;;1.70;99.90;;;;;;5089948;28;20195;-63
2022/12/09 06:17:16;;;;;;;19.13;12.33;;;1.60;99.90;;;;;;5088407;28;20262;-63
2022/12/09 06:19:41;;;;;;;23.13;13.60;;;1.60;99.90;;;;;;5089144;28;20254;-62
2022/12/09 06:22:07;;;;;;;22.23;11.27;;;1.70;99.90;;;;;;5090165;28;20200;-64
2022/12/09 06:24:34;;;;;;;22.37;13.50;;;1.80;99.90;;;;;;5089946;28;20211;-63
2022/12/09 06:27:00;;;;;;;21.57;12.93;;;1.80;99.90;;;;;;5088740;28;20181;-64
2022/12/09 06:29:26;;;;;;;17.17;12.40;;;1.90;99.90;;;;;;5087402;28;20199;-64
2022/12/09 06:31:51;;;;;;;27.20;14.73;;;1.90;99.90;;;;;;5075550;28;20297;-64
2022/12/09 06:34:17;;;;;;;25.27;14.67;;;1.90;99.90;;;;;;5092135;28;20208;-64
2022/12/09 06:36:43;;;;;;;23.03;13.83;;;1.90;99.90;;;;;;5093486;28;20241;-64
2022/12/09 06:39:09;;;;;;;31.40;14.37;;;1.90;99.90;;;;;;5092166;28;20189;-64
2022/12/09 06:41:34;;;;;;;21.90;14.20;;;1.90;99.90;;;;;;5092267;28;20181;-64
2022/12/09 06:44:00;;;;;;;21.43;13.90;;;1.70;99.90;;;;;;5088406;28;20707;-64
2022/12/09 06:46:26;;;;;;;28.00;13.23;;;1.90;99.90;;;;;;5089859;28;20184;-63
2022/12/09 06:48:54;;;;;;;24.53;14.63;;;2.00;99.90;;;;;;5091839;28;20193;-64
2022/12/09 06:51:21;;;;;;;28.00;14.57;;;2.00;99.90;;;;;;5088572;28;20221;-64
2022/12/09 06:53:47;;;;;;;35.27;16.23;;;2.10;99.90;;;;;;5091513;28;20242;-64
2022/12/09 06:56:13;;;;;;;20.33;12.67;;;2.10;99.90;;;;;;5086288;28;20292;-65
2022/12/09 06:58:40;;;;;;;18.17;11.90;;;1.90;99.90;;;;;;5084969;28;20627;-64
2022/12/09 07:01:14;;;;;;;21.10;15.07;;;1.70;99.90;;;;;;5071634;28;20270;-64
2022/12/09 07:03:44;;;;;;;22.57;15.43;;;1.90;99.90;;;;;;5091174;28;20305;-64
2022/12/09 07:06:35;;;;;;;23.57;15.37;;;1.90;99.90;;;;;;5091504;28;20293;-64
2022/12/09 07:09:09;;;;;;;23.40;15.10;;;2.20;99.90;;;;;;5090604;28;20180;-64
2022/12/09 07:11:36;;;;;;;33.87;15.40;;;2.00;99.90;;;;;;5086401;28;20212;-64
2022/12/09 07:14:02;;;;;;;24.93;13.97;;;1.80;99.90;;;;;;5092613;28;20189;-64
2022/12/09 07:16:28;;;;;;;32.10;13.67;;;1.50;99.90;;;;;;5091965;28;20195;-64
2022/12/09 07:18:54;;;;;;;24.53;13.07;;;1.40;99.90;;;;;;5086911;28;20769;-64
2022/12/09 07:21:21;;;;;;;17.37;10.97;;;1.50;99.90;;;;;;5092474;28;20200;-64
2022/12/09 07:23:47;;;;;;;20.70;12.00;;;1.70;99.90;;;;;;5091542;28;20259;-64
2022/12/09 07:26:13;;;;;;;22.63;12.07;;;1.80;99.90;;;;;;5091446;28;20271;-64
2022/12/09 07:28:41;;;;;;;20.17;12.20;;;1.80;99.90;;;;;;5092633;28;20181;-64
2022/12/09 07:31:16;;;;;;;18.47;11.57;;;1.40;99.90;;;;;;5089844;28;20212;-63
2022/12/09 07:33:42;;;;;;;22.57;13.10;;;1.10;99.90;;;;;;5084802;28;20185;-64
2022/12/09 07:36:07;;;;;;;19.43;12.27;;;1.20;99.90;;;;;;5091095;28;20180;-64
2022/12/09 07:38:33;;;;;;;31.13;11.60;;;1.20;99.90;;;;;;5073866;28;20704;-64
2022/12/09 07:41:16;;;;;;;23.97;12.90;;;1.20;99.90;;;;;;5091228;28;20188;-63
2022/12/09 07:43:44;;;;;;;12.53;8.57;;;1.20;99.90;;;;;;5074873;28;20538;-64
2022/12/09 07:46:10;;;;;;;17.20;9.33;;;1.40;99.90;;;;;;5077871;28;20212;-64
2022/12/09 07:48:35;;;;;;;17.53;11.27;;;1.50;99.90;;;;;;5078549;28;20219;-64
2022/12/09 07:51:03;;;;;;;13.53;8.97;;;1.50;99.90;;;;;;5091024;28;20244;-64
2022/12/09 07:53:29;;;;;;;23.63;11.73;;;1.60;99.90;;;;;;5090471;28;20185;-64
2022/12/09 07:55:55;;;;;;;17.17;10.03;;;1.70;99.90;;;;;;5086888;28;20676;-63
2022/12/09 07:58:21;;;;;;;23.53;13.37;;;1.60;99.90;;;;;;5087071;28;20184;-63
2022/12/09 08:00:47;;;;;;;21.40;11.67;;;1.50;99.90;;;;;;5087009;28;20193;-64
2022/12/09 08:03:13;;;;;;;26.23;12.63;;;1.50;99.90;;;;;;5075723;28;20224;-63
2022/12/09 08:05:50;;;;;;;16.50;11.90;;;1.80;99.90;;;;;;5092256;28;20614;-63
2022/12/09 08:08:16;;;;;;;25.47;13.80;;;1.90;99.90;;;;;;5084767;28;20199;-63
2022/12/09 08:10:43;;;;;;;23.93;12.47;;;1.80;99.90;;;;;;5087693;28;20216;-63
2022/12/09 08:13:09;;;;;;;22.03;10.90;;;1.80;99.90;;;;;;5085079;28;20193;-63
2022/12/09 08:15:35;;;;;;;13.43;10.03;;;1.90;99.90;;;;;;5097509;28;20234;-63
2022/12/09 08:18:01;;;;;;;23.53;11.23;;;1.80;99.90;;;;;;5091756;28;20603;-63
2022/12/09 08:20:28;;;;;;;17.07;9.77;;;1.90;99.90;;;;;;5079023;28;20189;-63
2022/12/09 08:22:53;;;;;;;24.23;12.00;;;2.00;99.90;;;;;;5091479;28;20200;-63
2022/12/09 08:25:19;;;;;;;20.87;11.30;;;2.00;99.90;;;;;;5090356;28;20184;-63
2022/12/09 08:27:44;;;;;;;24.23;10.33;;;2.00;99.90;;;;;;5076449;28;20262;-63
2022/12/09 08:30:10;;;;;;;21.03;11.17;;;2.30;99.90;;;;;;5089046;28;20264;-65
2022/12/09 08:32:36;;;;;;;19.17;11.80;;;2.10;99.90;;;;;;5084741;28;20223;-65
2022/12/09 08:35:02;;;;;;;15.90;11.43;;;2.10;99.90;;;;;;5091390;28;20192;-64
2022/12/09 08:37:27;;;;;;;26.73;12.33;;;1.90;99.90;;;;;;5082743;28;20781;-65
2022/12/09 08:39:53;;;;;;;26.17;12.70;;;1.90;99.90;;;;;;5073344;28;20271;-65
2022/12/09 08:42:19;;;;;;;23.13;12.00;;;2.00;99.90;;;;;;5082293;28;20184;-65
2022/12/09 08:44:44;;;;;;;19.37;11.53;;;1.90;99.90;;;;;;5090096;28;20677;-65
2022/12/09 08:47:10;;;;;;;25.27;12.27;;;2.00;99.90;;;;;;5090074;28;20715;-65
2022/12/09 08:49:36;;;;;;;24.23;10.93;;;2.00;99.90;;;;;;5091375;28;20199;-65
2022/12/09 08:52:02;;;;;;;15.20;10.50;;;1.70;99.90;;;;;;5090536;28;20239;-65
2022/12/09 08:54:27;;;;;;;22.57;11.03;;;1.60;99.90;;;;;;5084743;28;20672;-65
2022/12/09 08:56:54;;;;;;;21.90;13.93;;;1.70;99.90;;;;;;5090943;28;20184;-65
2022/12/09 08:59:22;;;;;;;22.70;11.73;;;1.80;99.90;;;;;;5091319;28;20181;-65
2022/12/09 09:01:48;;;;;;;15.67;9.03;;;1.90;99.90;;;;;;5075032;28;20215;-64
2022/12/09 09:04:16;;;;;;;14.90;11.07;;;2.10;99.90;;;;;;5071302;28;21053;-65
2022/12/09 09:06:45;;;;;;;20.57;11.80;;;2.10;99.90;;;;;;5076214;28;20177;-65
2022/12/09 09:09:12;;;;;;;26.83;11.23;;;1.90;99.90;;;;;;5081527;28;20180;-65
2022/12/09 09:11:39;;;;;;;23.57;12.17;;;2.00;99.90;;;;;;5083653;28;20212;-65
2022/12/09 09:14:07;;;;;;;15.87;8.83;;;2.10;99.90;;;;;;5084414;28;20196;-65
2022/12/09 09:16:33;;;;;;;17.50;11.40;;;2.30;99.90;;;;;;5091033;28;20189;-65
2022/12/09 09:19:01;;;;;;;31.43;13.47;;;2.50;99.90;;;;;;5089004;28;20180;-65
2022/12/09 09:21:27;;;;;;;21.30;12.17;;;2.60;99.90;;;;;;5080152;28;20206;-65
2022/12/09 09:23:53;;;;;;;24.47;12.93;;;2.60;99.90;;;;;;5091045;28;20555;-65
2022/12/09 09:26:22;;;;;;;28.10;12.87;;;2.60;99.90;;;;;;5090958;28;20185;-65
2022/12/09 09:28:49;;;;;;;22.17;11.63;;;2.50;99.90;;;;;;5090255;28;20188;-64
2022/12/09 09:31:17;;;;;;;28.97;13.80;;;2.50;99.90;;;;;;5090562;28;20261;-65
2022/12/09 09:33:43;;;;;;;23.73;13.10;;;2.80;99.90;;;;;;5090795;28;20571;-65
2022/12/09 09:36:13;;;;;;;21.23;9.53;;;2.80;99.90;;;;;;5090301;28;20189;-65
2022/12/09 09:38:39;;;;;;;28.77;11.67;;;2.70;99.90;;;;;;5089163;28;20219;-64
2022/12/09 09:41:36;;;;;;;29.20;14.13;;;2.90;99.90;;;;;;5091110;28;20239;-64
2022/12/09 09:44:03;;;;;;;22.97;11.30;;;3.00;99.90;;;;;;5077608;28;20200;-64
2022/12/09 09:46:38;;;;;;;15.60;10.17;;;2.90;99.90;;;;;;5090706;28;20293;-64
2022/12/09 09:49:09;;;;;;;22.27;12.20;;;2.80;99.90;;;;;;5090811;28;20253;-63
2022/12/09 09:51:35;;;;;;;21.97;8.37;;;2.60;99.90;;;;;;5090089;28;20228;-63
2022/12/09 09:54:01;;;;;;;24.33;10.60;;;2.80;99.90;;;;;;5088996;28;20206;-64
2022/12/09 09:56:41;;;;;;;23.43;11.03;;;2.70;99.90;;;;;;5090589;28;20188;-64
2022/12/09 09:59:33;;;;;;;22.40;10.20;;;2.50;99.90;;;;;;5077875;28;20188;-64
2022/12/09 10:02:07;;;;;;;20.33;10.67;;;2.50;99.90;;;;;;5089597;28;20176;-65
2022/12/09 10:04:49;;;;;;;22.33;11.10;;;2.70;99.90;;;;;;5087454;28;20187;-64
2022/12/09 10:07:24;;;;;;;18.53;9.70;;;2.60;99.90;;;;;;5092144;28;20184;-64
2022/12/09 10:10:19;;;;;;;16.53;9.20;;;2.70;99.90;;;;;;5092603;28;20192;-64
2022/12/09 10:13:05;;;;;;;25.20;10.93;;;2.70;99.90;;;;;;5076450;28;20219;-62
2022/12/09 10:15:42;;;;;;;20.53;11.93;;;2.70;99.90;;;;;;5094056;28;20180;-62
2022/12/09 10:18:22;;;;;;;22.17;10.37;;;2.80;99.90;;;;;;5088438;28;20180;-62
2022/12/09 10:20:47;;;;;;;20.77;11.10;;;3.00;99.90;;;;;;5081282;28;20196;-62
2022/12/09 10:23:15;;;;;;;19.57;9.27;;;3.20;99.90;;;;;;5082888;28;20229;-62
2022/12/09 10:25:49;;;;;;;21.70;9.87;;;3.10;99.90;;;;;;5090139;28;20242;-63
2022/12/09 10:28:22;;;;;;;20.80;10.07;;;3.40;99.90;;;;;;5078166;28;20185;-63
2022/12/09 10:30:49;;;;;;;19.37;8.60;;;3.50;99.90;;;;;;5081747;28;20287;-63
2022/12/09 10:33:17;;;;;;;17.80;10.07;;;3.50;99.90;;;;;;5088988;28;20957;-64
2022/12/09 10:35:45;;;;;;;19.20;9.23;;;3.40;99.90;;;;;;5088919;28;20202;-64
2022/12/09 10:38:14;;;;;;;23.73;10.03;;;3.40;99.90;;;;;;5090524;28;20199;-64
2022/12/09 10:40:46;;;;;;;18.13;10.27;;;3.50;99.90;;;;;;5093617;28;20271;-64
2022/12/09 10:43:42;;;;;;;19.70;9.37;;;3.40;99.90;;;;;;5080298;28;20192;-64
2022/12/09 10:46:17;;;;;;;16.37;9.00;;;3.60;99.90;;;;;;5082094;28;20705;-64
2022/12/09 10:48:46;;;;;;;21.33;9.20;;;3.80;99.90;;;;;;5084195;28;20263;-63
2022/12/09 10:51:24;;;;;;;16.07;10.53;;;3.80;99.90;;;;;;5093355;28;20232;-63
2022/12/09 10:54:20;;;;;;;24.03;10.03;;;3.80;99.90;;;;;;5089853;28;20213;-64
2022/12/09 10:57:13;;;;;;;18.30;9.50;;;3.90;99.90;;;;;;5075064;28;20207;-64
2022/12/09 10:59:41;;;;;;;15.37;8.87;;;4.10;99.90;;;;;;5093328;28;20173;-64
2022/12/09 11:02:06;;;;;;;19.50;9.57;;;3.90;99.90;;;;;;5092370;28;20180;-64
2022/12/09 11:04:41;;;;;;;14.60;8.10;;;3.80;99.90;;;;;;5081767;28;20196;-64
2022/12/09 11:07:24;;;;;;;15.80;8.77;;;3.80;99.90;;;;;;5090850;28;20639;-64
2022/12/09 11:10:02;;;;;;;10.63;6.70;;;3.70;99.90;;;;;;5084963;28;20207;-64
2022/12/09 11:12:27;;;;;;;14.70;8.00;;;3.50;99.90;;;;;;5088931;28;20205;-64
2022/12/09 11:14:56;;;;;;;18.20;7.97;;;3.40;99.90;;;;;;5083528;28;20188;-64
2022/12/09 11:17:25;;;;;;;18.73;8.73;;;3.10;99.90;;;;;;5080201;28;20185;-63
2022/12/09 11:20:04;;;;;;;17.93;8.57;;;2.80;99.90;;;;;;5092581;28;20183;-64
2022/12/09 11:22:42;;;;;;;21.63;8.73;;;3.10;99.90;;;;;;5092412;28;20193;-64
2022/12/09 11:25:20;;;;;;;18.20;9.77;;;3.50;99.90;;;;;;5084570;28;20599;-64
2022/12/09 11:28:15;;;;;;;20.90;10.43;;;3.80;99.90;;;;;;5087887;28;20635;-63
2022/12/09 11:30:51;;;;;;;15.10;8.57;;;3.80;99.90;;;;;;5073867;28;20581;-62
2022/12/09 11:33:46;;;;;;;19.70;9.67;;;3.80;99.90;;;;;;5092951;28;20210;-65
2022/12/09 11:36:22;;;;;;;16.83;10.30;;;4.00;99.90;;;;;;5085052;28;20207;-63
2022/12/09 11:38:51;;;;;;;17.60;10.27;;;4.30;99.90;;;;;;5081172;28;20172;-63
2022/12/09 11:44:30;;;;;;;22.50;10.63;;;4.40;99.90;;;;;;5092714;28;20265;-63
2022/12/09 11:47:05;;;;;;;14.50;8.87;;;4.30;99.90;;;;;;5092343;28;20267;-64
2022/12/09 11:49:36;;;;;;;18.63;10.63;;;4.30;99.90;;;;;;5092361;28;20180;-64
2022/12/09 11:52:15;;;;;;;16.83;9.93;;;4.30;99.90;;;;;;5084413;28;20277;-64
2022/12/09 11:55:14;;;;;;;16.00;9.67;;;4.20;99.90;;;;;;5075752;28;20644;-64
2022/12/09 11:58:05;;;;;;;19.77;10.93;;;4.30;99.90;;;;;;5073463;28;20193;-64
2022/12/09 12:00:41;;;;;;;15.37;9.80;;;4.20;99.90;;;;;;5092237;28;20181;-64
2022/12/09 12:03:30;;;;;;;18.43;10.37;;;4.10;99.90;;;;;;5091970;28;20195;-63
2022/12/09 12:05:59;;;;;;;19.90;9.97;;;4.10;99.90;;;;;;5080013;28;20310;-64
2022/12/09 12:08:34;;;;;;;22.47;11.50;;;3.90;99.90;;;;;;5089972;28;20188;-64
2022/12/09 12:11:07;;;;;;;17.83;11.40;;;3.90;99.90;;;;;;5083252;28;20208;-64
2022/12/09 12:13:56;;;;;;;15.80;10.20;;;3.50;99.90;;;;;;5076372;28;20211;-63
2022/12/09 12:16:35;;;;;;;11.87;7.20;;;3.40;99.90;;;;;;5084640;28;20861;-64
2022/12/09 12:19:00;;;;;;;21.17;10.03;;;3.30;99.90;;;;;;5084635;28;20702;-64
2022/12/09 12:21:43;;;;;;;19.60;9.70;;;3.50;99.90;;;;;;5091916;28;20272;-63
2022/12/09 12:24:19;;;;;;;19.03;9.73;;;3.20;99.90;;;;;;5090862;28;20184;-64
2022/12/09 12:27:05;;;;;;;17.37;9.17;;;3.10;99.90;;;;;;5082528;28;20275;-64
2022/12/09 12:29:46;;;;;;;14.53;9.27;;;3.20;99.90;;;;;;5091262;28;20180;-64
2022/12/09 12:32:23;;;;;;;16.20;9.50;;;3.30;99.90;;;;;;5091623;28;20247;-64
2022/12/09 12:35:18;;;;;;;15.30;9.77;;;3.40;99.90;;;;;;5091709;28;20177;-64
2022/12/09 12:38:20;;;;;;;20.87;10.27;;;3.50;99.90;;;;;;5072999;28;20201;-64
2022/12/09 12:40:45;;;;;;;13.83;9.63;;;3.40;99.90;;;;;;5084147;28;20183;-64
2022/12/09 12:46:42;;;;;;;12.40;7.80;;;3.50;99.90;;;;;;5088433;28;20188;-64
2022/12/09 12:49:29;;;;;;;17.63;9.67;;;3.40;99.90;;;;;;5075554;28;20719;-64
2022/12/09 12:52:04;;;;;;;10.77;8.37;;;3.40;99.90;;;;;;5089072;28;20713;-64
2022/12/09 12:55:00;;;;;;;12.87;8.40;;;3.50;99.90;;;;;;5090251;28;20212;-64
2022/12/09 12:57:55;;;;;;;10.60;9.50;;;3.50;99.90;;;;;;5086838;28;20184;-64
2022/12/09 13:00:24;;;;;;;20.03;7.77;;;3.20;99.90;;;;;;5005450;28;20187;-64
2022/12/09 13:03:08;;;;;;;15.40;9.67;;;3.10;99.90;;;;;;5096544;28;20188;-64